createdAt,value
2018-07-22T13:50:07.401Z,88.80
2018-07-22T13:52:38.251Z,90.30
2018-07-22T13:55:09.044Z,90.40
2018-07-22T13:57:39.787Z,90.30
2018-07-22T14:00:10.584Z,90.30
2018-07-22T14:02:43.950Z,90.00
2018-07-22T14:05:14.863Z,87.40
2018-07-22T14:07:49.064Z,89.30
2018-07-22T14:10:19.956Z,90.40
2018-07-22T14:12:50.830Z,90.30
2018-07-22T14:15:43.308Z,89.10
2018-07-22T14:18:14.002Z,89.50
2018-07-22T14:20:44.845Z,90.10
2018-07-22T14:23:15.538Z,90.20
2018-07-22T14:25:46.358Z,90.20
2018-07-22T14:28:18.396Z,90.60
2018-07-22T14:30:49.271Z,90.40
2018-07-22T14:33:20.144Z,90.50
2018-07-22T14:35:50.971Z,90.00
2018-07-22T14:38:22.480Z,89.80
2018-07-22T14:40:53.395Z,89.90
2018-07-22T14:43:23.964Z,90.20
2018-07-22T14:45:54.926Z,90.10
2018-07-22T14:48:26.249Z,90.00
2018-07-22T14:50:57.176Z,89.90
2018-07-22T14:53:28.022Z,88.30
2018-07-22T14:55:58.807Z,88.40
2018-07-22T14:58:29.852Z,88.20
2018-07-22T15:01:00.729Z,87.20
2018-07-22T15:03:32.191Z,86.30
2018-07-22T15:06:03.315Z,85.90
2018-07-22T15:08:34.142Z,85.60
2018-07-22T15:15:00.531Z,87.60
2018-07-22T15:17:53.408Z,88.60
2018-07-22T15:21:37.587Z,90.10
2018-07-22T15:24:08.495Z,90.40
2018-07-22T15:26:39.808Z,90.30
2018-07-22T15:45:15.252Z,90.00
2018-07-22T15:47:46.942Z,90.50
2018-07-22T15:50:18.169Z,90.30
2018-07-22T15:52:53.028Z,90.00
2018-07-22T15:58:33.318Z,89.70
2018-07-22T18:48:26.816Z,99.70
2018-07-22T18:51:01.818Z,99.80
2018-07-22T18:58:43.684Z,99.40
2018-07-22T19:01:14.813Z,99.60
2018-07-22T19:03:51.418Z,99.80
2018-07-22T19:09:28.783Z,99.90
2018-07-22T19:12:00.865Z,99.90
2018-07-22T19:14:31.862Z,99.60
2018-07-22T19:17:12.738Z,99.70
2018-07-22T19:19:45.261Z,99.70
2018-07-22T19:22:23.094Z,99.90
2018-07-22T19:24:54.263Z,99.80
2018-07-22T19:27:29.314Z,99.60
2018-07-22T19:30:08.321Z,99.70
2018-07-22T19:32:55.489Z,99.80
2018-07-22T19:35:31.138Z,99.60
2018-07-22T19:38:12.763Z,99.70
2018-07-22T19:43:23.526Z,99.70
2018-07-22T19:46:08.585Z,99.70
2018-07-22T19:48:41.697Z,99.80
2018-07-22T19:51:14.214Z,99.50
2018-07-22T19:53:54.084Z,99.80
2018-07-22T19:56:25.395Z,99.70
2018-07-22T19:58:56.678Z,99.90
2018-07-22T20:01:39.323Z,99.90
2018-07-22T20:10:04.634Z,99.90
2018-07-22T20:12:47.166Z,99.80
2018-07-22T20:17:00.047Z,99.90
2018-07-22T20:22:59.392Z,99.90
2018-07-22T20:25:31.703Z,99.90
2018-07-22T20:28:03.805Z,99.80
2018-07-22T20:31:00.584Z,99.90
2018-07-22T20:33:31.831Z,99.90
2018-07-22T20:36:04.098Z,99.90
2018-07-22T20:38:35.351Z,99.90
2018-07-22T20:41:07.407Z,99.90
2018-07-22T20:43:38.592Z,99.90
